createdAt,value
2019-03-08T00:04:59.458Z,73.53
2019-03-08T00:10:01.884Z,73.52
2019-03-08T00:15:04.275Z,73.50
2019-03-08T00:20:07.118Z,73.13
2019-03-08T00:25:09.228Z,72.95
2019-03-08T00:30:11.910Z,73.18
2019-03-08T00:35:14.040Z,73.20
2019-03-08T00:40:16.045Z,72.87
2019-03-08T00:45:18.438Z,72.88
2019-03-08T00:50:20.504Z,72.81
2019-03-08T00:55:22.580Z,73.11
2019-03-08T01:00:24.709Z,73.42
2019-03-08T01:05:27.051Z,73.75
2019-03-08T01:10:29.509Z,73.76
2019-03-08T01:15:31.585Z,73.75
2019-03-08T01:20:33.781Z,74.04
2019-03-08T01:25:36.013Z,74.38
2019-03-08T01:30:38.198Z,74.59
2019-03-08T01:35:40.440Z,74.64
2019-03-08T01:40:42.524Z,74.35
2019-03-08T01:45:44.571Z,74.18
2019-03-08T01:50:46.630Z,74.42
2019-03-08T01:55:48.828Z,74.15
2019-03-08T02:00:50.869Z,73.81
2019-03-08T02:05:52.966Z,73.67
2019-03-08T02:10:55.005Z,73.08
2019-03-08T02:15:57.039Z,72.91
2019-03-08T02:21:06.404Z,72.49
2019-03-08T02:26:03.068Z,70.85
2019-03-08T02:31:05.278Z,69.94
2019-03-08T02:36:07.808Z,69.56
2019-03-08T02:41:09.848Z,68.72
2019-03-08T02:46:11.922Z,67.63
2019-03-08T02:51:14.357Z,66.79
2019-03-08T02:56:16.412Z,65.89
2019-03-08T03:01:18.538Z,64.06
2019-03-08T03:06:20.571Z,62.85
2019-03-08T03:11:22.673Z,61.68
2019-03-08T03:16:24.771Z,61.33
2019-03-08T03:21:27.227Z,61.72
2019-03-08T03:26:29.314Z,62.75
2019-03-08T03:31:31.368Z,64.03
2019-03-08T03:36:33.410Z,65.03
2019-03-08T03:41:35.772Z,65.83
2019-03-08T03:46:37.786Z,66.31
2019-03-08T03:51:40.408Z,67.15
2019-03-08T03:56:42.865Z,66.75
2019-03-08T04:01:47.867Z,66.71
2019-03-08T04:06:50.135Z,66.46
2019-03-08T04:11:52.341Z,67.09
2019-03-08T04:16:54.702Z,66.89
2019-03-08T04:21:56.852Z,66.75
2019-03-08T04:26:58.886Z,67.02
2019-03-08T04:32:00.942Z,67.41
2019-03-08T04:37:02.958Z,67.51
2019-03-08T04:42:05.223Z,67.90
2019-03-08T04:47:07.552Z,67.46
2019-03-08T04:52:09.748Z,67.53
2019-03-08T04:57:11.802Z,67.32
2019-03-08T05:02:14.228Z,67.40
2019-03-08T05:07:16.577Z,67.25
2019-03-08T05:12:18.934Z,67.13
2019-03-08T05:17:21.023Z,66.47
2019-03-08T05:22:23.246Z,66.56
2019-03-08T05:27:25.394Z,66.25
2019-03-08T05:32:27.471Z,66.51
2019-03-08T05:37:29.565Z,66.50
2019-03-08T05:42:31.744Z,66.65
2019-03-08T05:47:33.858Z,66.98
2019-03-08T05:52:36.333Z,67.19
2019-03-08T05:57:38.571Z,67.43
2019-03-08T06:02:41.715Z,67.42
2019-03-08T06:07:44.402Z,67.45
2019-03-08T06:12:46.470Z,67.63
2019-03-08T06:17:48.548Z,67.47
2019-03-08T06:22:50.926Z,67.61
2019-03-08T06:27:53.976Z,67.74
2019-03-08T06:32:59.793Z,67.93
2019-03-08T06:38:03.962Z,68.06
2019-03-08T06:43:06.039Z,67.91
2019-03-08T06:48:08.160Z,67.89
2019-03-08T06:53:10.243Z,67.74
2019-03-08T06:58:15.509Z,67.88
2019-03-08T07:03:17.623Z,67.87
2019-03-08T07:08:20.333Z,67.82
2019-03-08T07:13:22.739Z,68.12
2019-03-08T07:18:25.047Z,68.00
2019-03-08T07:23:55.826Z,68.27
2019-03-08T07:29:29.823Z,67.88
2019-03-08T07:34:38.831Z,68.20
2019-03-08T07:39:49.705Z,68.20
2019-03-08T07:45:01.630Z,68.02
2019-03-08T07:50:27.296Z,68.37
2019-03-08T07:55:46.481Z,68.38
2019-03-08T08:01:05.839Z,68.26
2019-03-08T08:06:14.259Z,68.31
2019-03-08T08:11:38.845Z,68.11
2019-03-08T08:17:06.352Z,68.33
2019-03-08T08:22:28.032Z,69.24
2019-03-08T08:27:46.665Z,69.77
2019-03-08T08:33:08.268Z,69.72
2019-03-08T08:38:25.802Z,70.84
2019-03-08T08:43:44.134Z,71.59
2019-03-08T08:49:14.862Z,72.76
2019-03-08T08:54:33.941Z,73.73
2019-03-08T09:00:01.502Z,74.00
2019-03-08T09:05:22.905Z,74.78
2019-03-08T09:10:43.370Z,75.51
2019-03-08T09:16:07.876Z,77.48
2019-03-08T09:21:28.311Z,77.67
2019-03-08T09:26:55.772Z,77.85
2019-03-08T09:32:17.495Z,78.62
2019-03-08T09:37:54.208Z,78.16
2019-03-08T09:43:14.731Z,78.97
2019-03-08T09:48:51.458Z,78.84
2019-03-08T09:54:01.032Z,78.63
2019-03-08T09:59:21.099Z,80.17
2019-03-08T10:04:35.765Z,80.62
2019-03-08T10:09:44.522Z,80.77
2019-03-08T10:15:12.835Z,80.60
2019-03-08T10:20:44.012Z,80.96
2019-03-08T10:25:55.786Z,82.17
2019-03-08T10:31:17.697Z,81.09
2019-03-08T10:36:54.451Z,81.48
2019-03-08T10:42:10.180Z,79.41
2019-03-08T10:47:31.124Z,76.37
2019-03-08T10:52:40.457Z,74.72
2019-03-08T10:58:14.149Z,72.74
2019-03-08T11:03:45.033Z,69.30
2019-03-08T11:08:52.219Z,69.35
2019-03-08T11:14:13.738Z,69.63
2019-03-08T11:19:40.596Z,67.38
2019-03-08T11:25:14.454Z,67.33
2019-03-08T11:30:36.973Z,65.70
2019-03-08T11:35:54.209Z,66.33
2019-03-08T11:41:25.211Z,66.77
2019-03-08T11:46:53.686Z,67.97
2019-03-08T11:52:17.964Z,68.78
2019-03-08T11:57:34.965Z,68.43
2019-03-08T12:02:56.760Z,68.93
2019-03-08T12:08:18.217Z,68.54
2019-03-08T12:13:48.863Z,67.21
2019-03-08T12:19:16.139Z,66.28
2019-03-08T12:24:29.319Z,63.26
2019-03-08T12:29:49.150Z,60.75
2019-03-08T12:35:09.616Z,61.49
2019-03-08T12:40:19.844Z,62.55
2019-03-08T12:45:41.533Z,62.03
2019-03-08T12:51:03.368Z,61.88
2019-03-08T12:56:24.006Z,60.21
2019-03-08T13:01:50.518Z,57.28
2019-03-08T13:07:07.050Z,56.37
2019-03-08T13:12:09.249Z,53.96
2019-03-08T13:17:11.651Z,53.19
2019-03-08T13:22:13.875Z,52.15
2019-03-08T13:27:16.435Z,54.14
2019-03-08T13:32:18.569Z,52.68
2019-03-08T13:37:21.032Z,52.68
2019-03-08T13:42:23.457Z,53.50
2019-03-08T13:47:25.613Z,53.99
2019-03-08T13:52:27.943Z,54.30
2019-03-08T13:57:30.415Z,50.95
2019-03-08T14:02:32.662Z,45.76
2019-03-08T14:07:35.236Z,46.38
2019-03-08T14:12:37.743Z,47.64
2019-03-08T14:17:40.460Z,47.97
2019-03-08T14:22:43.257Z,47.53
2019-03-08T14:27:45.399Z,44.88
2019-03-08T14:32:47.570Z,44.88
2019-03-08T14:37:52.428Z,47.13
2019-03-08T14:43:06.695Z,47.13
2019-03-08T14:48:09.556Z,47.14
2019-03-08T14:53:13.133Z,47.34
2019-03-08T14:58:15.513Z,48.45
2019-03-08T15:03:20.279Z,48.72
2019-03-08T15:08:22.078Z,48.05
2019-03-08T15:13:25.742Z,48.05
2019-03-08T15:18:29.625Z,49.58
2019-03-08T15:23:32.152Z,48.15
2019-03-08T15:28:34.321Z,49.07
2019-03-08T15:33:36.576Z,50.39
2019-03-08T15:38:38.673Z,52.39
2019-03-08T15:43:40.846Z,55.01
2019-03-08T15:48:45.164Z,55.70
2019-03-08T15:53:47.119Z,56.48
2019-03-08T15:58:49.364Z,56.48
2019-03-08T16:03:51.541Z,56.76
2019-03-08T16:08:53.768Z,57.58
2019-03-08T16:13:55.888Z,58.28
2019-03-08T16:18:57.950Z,58.35
2019-03-08T16:24:00.341Z,57.91
2019-03-08T16:29:04.375Z,57.28
2019-03-08T16:34:07.685Z,56.70
2019-03-08T16:39:28.198Z,56.75
2019-03-08T16:44:42.754Z,56.73
2019-03-08T16:50:13.449Z,57.36
2019-03-08T16:55:46.526Z,58.49
2019-03-08T17:01:11.318Z,60.73
2019-03-08T17:06:29.946Z,60.50
2019-03-08T17:11:48.923Z,61.91
2019-03-08T17:17:16.667Z,63.06
2019-03-08T17:22:30.978Z,63.30
2019-03-08T17:27:49.504Z,63.31
2019-03-08T17:33:13.627Z,63.95
2019-03-08T17:38:44.310Z,63.87
2019-03-08T17:44:13.941Z,65.46
2019-03-08T17:49:41.782Z,65.97
2019-03-08T17:54:56.322Z,66.40
2019-03-08T18:00:16.914Z,67.29
2019-03-08T18:05:41.370Z,68.06
2019-03-08T18:11:12.044Z,67.73
2019-03-08T18:16:36.896Z,67.42
2019-03-08T18:21:59.617Z,67.54
2019-03-08T18:27:21.363Z,67.53
2019-03-08T18:33:08.399Z,66.75
2019-03-08T18:38:31.739Z,66.95
2019-03-08T18:43:44.918Z,67.71
2019-03-08T18:48:54.547Z,68.28
2019-03-08T18:54:19.188Z,68.55
2019-03-08T18:59:41.033Z,68.65
2019-03-08T19:04:54.382Z,69.16
2019-03-08T19:10:22.680Z,69.11
2019-03-08T19:15:47.136Z,68.80
2019-03-08T19:21:23.713Z,69.16
2019-03-08T19:26:41.814Z,69.29
2019-03-08T19:31:50.975Z,69.29
2019-03-08T19:37:21.171Z,69.23
2019-03-08T19:42:43.611Z,69.04
2019-03-08T19:48:04.130Z,68.39
2019-03-08T19:53:19.579Z,68.26
2019-03-08T19:58:39.303Z,68.40
2019-03-08T20:03:49.562Z,68.26
2019-03-08T20:09:01.372Z,68.28
2019-03-08T20:14:20.028Z,68.54
2019-03-08T20:19:44.382Z,68.74
2019-03-08T20:25:04.711Z,68.30
2019-03-08T20:30:19.793Z,68.34
2019-03-08T20:35:41.705Z,67.84
2019-03-08T20:40:50.504Z,66.90
2019-03-08T20:46:10.440Z,67.15
2019-03-08T20:51:12.555Z,67.18
2019-03-08T20:56:14.728Z,67.41
2019-03-08T21:01:16.954Z,67.60
2019-03-08T21:06:19.059Z,67.84
2019-03-08T21:11:28.881Z,68.10
2019-03-08T21:16:30.988Z,68.05
2019-03-08T21:21:33.234Z,68.41
2019-03-08T21:26:35.412Z,68.81
2019-03-08T21:31:37.519Z,68.60
2019-03-08T21:36:39.656Z,69.11
2019-03-08T21:41:41.922Z,68.68
2019-03-08T21:46:44.023Z,68.64
2019-03-08T21:51:46.653Z,68.65
2019-03-08T21:56:49.560Z,68.08
2019-03-08T22:01:51.863Z,67.88
2019-03-08T22:06:53.909Z,67.99
2019-03-08T22:11:55.991Z,67.39
2019-03-08T22:16:58.107Z,67.01
2019-03-08T22:22:00.164Z,66.67
2019-03-08T22:27:02.335Z,66.39
2019-03-08T22:32:04.492Z,66.33
2019-03-08T22:37:07.322Z,65.92
2019-03-08T22:42:09.509Z,65.58
2019-03-08T22:47:11.568Z,65.50
2019-03-08T22:52:13.703Z,65.29
2019-03-08T22:57:15.846Z,65.59
2019-03-08T23:02:18.714Z,65.34
2019-03-08T23:07:20.880Z,65.68
2019-03-08T23:12:22.944Z,65.90
2019-03-08T23:17:25.177Z,65.93
2019-03-08T23:22:27.603Z,66.00
2019-03-08T23:27:34.632Z,66.33
2019-03-08T23:32:40.928Z,66.24
2019-03-08T23:37:43.021Z,66.16
2019-03-08T23:42:45.681Z,66.31
2019-03-08T23:47:47.788Z,66.16
2019-03-08T23:52:50.019Z,66.58
2019-03-08T23:57:52.132Z,66.50
